sensor_id;sensor_type;location;lat;lon;timestamp;P1;durP1;ratioP1;P2;durP2;ratioP2
23117;SDS011;11728;50.624;6.014;2022-08-19T00:03:08;10.20;;;8.90;;
23117;SDS011;11728;50.624;6.014;2022-08-19T00:08:09;10.93;;;9.70;;
23117;SDS011;11728;50.624;6.014;2022-08-19T00:13:10;9.93;;;8.93;;
23117;SDS011;11728;50.624;6.014;2022-08-19T00:18:10;10.80;;;8.45;;
23117;SDS011;11728;50.624;6.014;2022-08-19T00:23:11;10.10;;;8.43;;
23117;SDS011;11728;50.624;6.014;2022-08-19T00:28:11;10.60;;;8.68;;
23117;SDS011;11728;50.624;6.014;2022-08-19T00:33:12;9.95;;;8.15;;
23117;SDS011;11728;50.624;6.014;2022-08-19T00:38:13;12.20;;;9.20;;
23117;SDS011;11728;50.624;6.014;2022-08-19T00:43:14;11.05;;;9.13;;
23117;SDS011;11728;50.624;6.014;2022-08-19T00:48:19;10.40;;;9.32;;
23117;SDS011;11728;50.624;6.014;2022-08-19T00:53:21;12.75;;;10.52;;
23117;SDS011;11728;50.624;6.014;2022-08-19T00:58:24;13.00;;;10.68;;
23117;SDS011;11728;50.624;6.014;2022-08-19T01:03:27;12.35;;;11.05;;
23117;SDS011;11728;50.624;6.014;2022-08-19T01:08:29;13.30;;;11.90;;
23117;SDS011;11728;50.624;6.014;2022-08-19T01:13:30;15.57;;;12.70;;
23117;SDS011;11728;50.624;6.014;2022-08-19T01:18:35;12.85;;;11.55;;
23117;SDS011;11728;50.624;6.014;2022-08-19T01:23:39;13.50;;;12.20;;
23117;SDS011;11728;50.624;6.014;2022-08-19T01:28:42;15.27;;;13.07;;
23117;SDS011;11728;50.624;6.014;2022-08-19T01:33:44;13.80;;;12.27;;
23117;SDS011;11728;50.624;6.014;2022-08-19T01:38:46;15.07;;;12.70;;
23117;SDS011;11728;50.624;6.014;2022-08-19T01:43:49;16.38;;;12.00;;
23117;SDS011;11728;50.624;6.014;2022-08-19T01:48:50;14.25;;;12.15;;
23117;SDS011;11728;50.624;6.014;2022-08-19T01:53:51;14.68;;;11.68;;
23117;SDS011;11728;50.624;6.014;2022-08-19T01:58:53;13.43;;;11.95;;
23117;SDS011;11728;50.624;6.014;2022-08-19T02:03:58;13.52;;;12.07;;
23117;SDS011;11728;50.624;6.014;2022-08-19T02:09:00;15.95;;;11.90;;
23117;SDS011;11728;50.624;6.014;2022-08-19T02:14:03;13.52;;;12.20;;
23117;SDS011;11728;50.624;6.014;2022-08-19T02:19:06;12.32;;;11.02;;
23117;SDS011;11728;50.624;6.014;2022-08-19T02:24:06;14.02;;;12.63;;
23117;SDS011;11728;50.624;6.014;2022-08-19T02:29:07;14.43;;;12.95;;
23117;SDS011;11728;50.624;6.014;2022-08-19T02:34:08;15.55;;;13.95;;
23117;SDS011;11728;50.624;6.014;2022-08-19T02:39:09;15.15;;;13.55;;
23117;SDS011;11728;50.624;6.014;2022-08-19T02:44:10;14.35;;;12.85;;
23117;SDS011;11728;50.624;6.014;2022-08-19T02:49:10;17.38;;;15.18;;
23117;SDS011;11728;50.624;6.014;2022-08-19T02:54:11;18.13;;;15.38;;
23117;SDS011;11728;50.624;6.014;2022-08-19T02:59:12;17.13;;;15.25;;
23117;SDS011;11728;50.624;6.014;2022-08-19T03:04:14;15.98;;;14.38;;
23117;SDS011;11728;50.624;6.014;2022-08-19T03:09:16;15.35;;;13.73;;
23117;SDS011;11728;50.624;6.014;2022-08-19T03:14:18;16.13;;;14.07;;
23117;SDS011;11728;50.624;6.014;2022-08-19T03:19:19;16.52;;;14.77;;
23117;SDS011;11728;50.624;6.014;2022-08-19T03:24:21;17.08;;;15.27;;
23117;SDS011;11728;50.624;6.014;2022-08-19T03:29:22;16.20;;;14.50;;
23117;SDS011;11728;50.624;6.014;2022-08-19T03:34:25;16.50;;;14.90;;
23117;SDS011;11728;50.624;6.014;2022-08-19T03:39:27;16.10;;;14.23;;
23117;SDS011;11728;50.624;6.014;2022-08-19T03:44:29;14.93;;;13.32;;
23117;SDS011;11728;50.624;6.014;2022-08-19T03:49:31;19.08;;;16.42;;
23117;SDS011;11728;50.624;6.014;2022-08-19T03:54:33;17.08;;;15.27;;
23117;SDS011;11728;50.624;6.014;2022-08-19T03:59:35;18.23;;;16.42;;
23117;SDS011;11728;50.624;6.014;2022-08-19T04:04:38;23.35;;;20.55;;
23117;SDS011;11728;50.624;6.014;2022-08-19T04:09:39;21.30;;;18.38;;
23117;SDS011;11728;50.624;6.014;2022-08-19T04:14:40;23.25;;;20.17;;
23117;SDS011;11728;50.624;6.014;2022-08-19T04:19:41;28.20;;;25.17;;
23117;SDS011;11728;50.624;6.014;2022-08-19T04:24:42;32.83;;;28.40;;
23117;SDS011;11728;50.624;6.014;2022-08-19T04:29:43;37.38;;;30.13;;
23117;SDS011;11728;50.624;6.014;2022-08-19T04:34:44;33.88;;;26.92;;
23117;SDS011;11728;50.624;6.014;2022-08-19T04:39:44;29.25;;;25.45;;
23117;SDS011;11728;50.624;6.014;2022-08-19T04:45:04;37.87;;;31.00;;
23117;SDS011;11728;50.624;6.014;2022-08-19T04:50:10;33.63;;;29.35;;
23117;SDS011;11728;50.624;6.014;2022-08-19T04:55:12;32.35;;;26.55;;
23117;SDS011;11728;50.624;6.014;2022-08-19T05:00:14;43.35;;;33.38;;
23117;SDS011;11728;50.624;6.014;2022-08-19T05:05:14;46.10;;;34.97;;
23117;SDS011;11728;50.624;6.014;2022-08-19T05:10:15;47.47;;;35.17;;
23117;SDS011;11728;50.624;6.014;2022-08-19T05:15:16;54.38;;;39.15;;
23117;SDS011;11728;50.624;6.014;2022-08-19T05:20:17;54.22;;;39.42;;
23117;SDS011;11728;50.624;6.014;2022-08-19T05:25:38;67.47;;;46.08;;
23117;SDS011;11728;50.624;6.014;2022-08-19T05:30:39;68.20;;;45.28;;
23117;SDS011;11728;50.624;6.014;2022-08-19T05:35:40;58.90;;;42.05;;
23117;SDS011;11728;50.624;6.014;2022-08-19T05:40:41;61.55;;;43.25;;
23117;SDS011;11728;50.624;6.014;2022-08-19T05:45:49;65.35;;;44.75;;
23117;SDS011;11728;50.624;6.014;2022-08-19T05:50:50;61.97;;;43.33;;
23117;SDS011;11728;50.624;6.014;2022-08-19T05:55:51;64.72;;;43.65;;
23117;SDS011;11728;50.624;6.014;2022-08-19T06:00:52;69.82;;;44.63;;
23117;SDS011;11728;50.624;6.014;2022-08-19T06:05:54;65.78;;;43.55;;
23117;SDS011;11728;50.624;6.014;2022-08-19T06:10:55;61.40;;;41.30;;
23117;SDS011;11728;50.624;6.014;2022-08-19T06:15:56;62.03;;;41.15;;
23117;SDS011;11728;50.624;6.014;2022-08-19T06:20:57;57.63;;;39.85;;
23117;SDS011;11728;50.624;6.014;2022-08-19T06:25:57;59.70;;;40.92;;
23117;SDS011;11728;50.624;6.014;2022-08-19T06:30:58;56.75;;;39.20;;
23117;SDS011;11728;50.624;6.014;2022-08-19T06:35:58;65.90;;;42.75;;
23117;SDS011;11728;50.624;6.014;2022-08-19T06:41:05;66.05;;;43.08;;
23117;SDS011;11728;50.624;6.014;2022-08-19T06:46:09;65.60;;;41.75;;
23117;SDS011;11728;50.624;6.014;2022-08-19T06:51:16;56.72;;;40.60;;
23117;SDS011;11728;50.624;6.014;2022-08-19T06:56:24;60.33;;;39.65;;
23117;SDS011;11728;50.624;6.014;2022-08-19T07:15:30;52.83;;;35.97;;
23117;SDS011;11728;50.624;6.014;2022-08-19T07:21:53;59.30;;;41.22;;
23117;SDS011;11728;50.624;6.014;2022-08-19T07:26:56;62.00;;;43.33;;
23117;SDS011;11728;50.624;6.014;2022-08-19T07:32:03;62.42;;;42.85;;
23117;SDS011;11728;50.624;6.014;2022-08-19T07:37:05;67.75;;;43.45;;
23117;SDS011;11728;50.624;6.014;2022-08-19T07:42:08;57.35;;;40.25;;
23117;SDS011;11728;50.624;6.014;2022-08-19T07:47:10;51.67;;;35.78;;
23117;SDS011;11728;50.624;6.014;2022-08-19T07:52:11;43.08;;;32.55;;
23117;SDS011;11728;50.624;6.014;2022-08-19T07:57:11;40.17;;;31.13;;
23117;SDS011;11728;50.624;6.014;2022-08-19T08:02:12;34.70;;;28.70;;
23117;SDS011;11728;50.624;6.014;2022-08-19T08:07:12;36.92;;;30.58;;
23117;SDS011;11728;50.624;6.014;2022-08-19T08:12:36;35.03;;;27.58;;
23117;SDS011;11728;50.624;6.014;2022-08-19T08:17:42;41.70;;;29.50;;
23117;SDS011;11728;50.624;6.014;2022-08-19T08:22:44;35.03;;;28.55;;
23117;SDS011;11728;50.624;6.014;2022-08-19T08:28:04;33.92;;;28.20;;
23117;SDS011;11728;50.624;6.014;2022-08-19T08:33:05;37.30;;;29.33;;
23117;SDS011;11728;50.624;6.014;2022-08-19T08:38:06;30.02;;;25.35;;
23117;SDS011;11728;50.624;6.014;2022-08-19T08:48:46;33.15;;;26.08;;
23117;SDS011;11728;50.624;6.014;2022-08-19T08:54:07;32.33;;;25.58;;
23117;SDS011;11728;50.624;6.014;2022-08-19T08:59:25;35.03;;;25.48;;
23117;SDS011;11728;50.624;6.014;2022-08-19T09:04:33;38.30;;;25.92;;
23117;SDS011;11728;50.624;6.014;2022-08-19T09:09:43;31.60;;;26.35;;
23117;SDS011;11728;50.624;6.014;2022-08-19T09:14:48;40.45;;;27.02;;
23117;SDS011;11728;50.624;6.014;2022-08-19T09:20:00;33.58;;;25.90;;
23117;SDS011;11728;50.624;6.014;2022-08-19T09:25:06;35.50;;;27.17;;
23117;SDS011;11728;50.624;6.014;2022-08-19T09:30:10;41.33;;;27.85;;
23117;SDS011;11728;50.624;6.014;2022-08-19T09:35:14;38.05;;;27.10;;
23117;SDS011;11728;50.624;6.014;2022-08-19T09:40:15;37.40;;;26.42;;
23117;SDS011;11728;50.624;6.014;2022-08-19T09:45:17;37.47;;;26.30;;
23117;SDS011;11728;50.624;6.014;2022-08-19T09:50:22;32.35;;;24.67;;
23117;SDS011;11728;50.624;6.014;2022-08-19T09:55:24;29.70;;;23.90;;
23117;SDS011;11728;50.624;6.014;2022-08-19T10:00:25;30.60;;;24.38;;
23117;SDS011;11728;50.624;6.014;2022-08-19T10:05:26;28.83;;;22.08;;
23117;SDS011;11728;50.624;6.014;2022-08-19T10:10:46;30.80;;;21.60;;
23117;SDS011;11728;50.624;6.014;2022-08-19T10:15:46;25.98;;;22.40;;
23117;SDS011;11728;50.624;6.014;2022-08-19T10:20:47;27.85;;;21.60;;
23117;SDS011;11728;50.624;6.014;2022-08-19T10:25:49;22.70;;;19.20;;
23117;SDS011;11728;50.624;6.014;2022-08-19T10:30:53;23.05;;;17.95;;
23117;SDS011;11728;50.624;6.014;2022-08-19T10:36:04;23.77;;;18.63;;
23117;SDS011;11728;50.624;6.014;2022-08-19T10:41:11;24.08;;;18.52;;
23117;SDS011;11728;50.624;6.014;2022-08-19T10:46:14;18.23;;;15.52;;
23117;SDS011;11728;50.624;6.014;2022-08-19T10:51:15;25.52;;;20.05;;
23117;SDS011;11728;50.624;6.014;2022-08-19T10:56:36;24.20;;;20.15;;
23117;SDS011;11728;50.624;6.014;2022-08-19T11:01:52;23.58;;;18.67;;
23117;SDS011;11728;50.624;6.014;2022-08-19T11:06:53;23.67;;;20.10;;
23117;SDS011;11728;50.624;6.014;2022-08-19T11:11:54;24.42;;;19.15;;
23117;SDS011;11728;50.624;6.014;2022-08-19T11:16:56;24.00;;;19.35;;
23117;SDS011;11728;50.624;6.014;2022-08-19T11:21:57;30.55;;;21.15;;
23117;SDS011;11728;50.624;6.014;2022-08-19T11:27:03;23.85;;;19.52;;
23117;SDS011;11728;50.624;6.014;2022-08-19T11:32:09;26.03;;;19.93;;
23117;SDS011;11728;50.624;6.014;2022-08-19T11:37:10;22.63;;;18.55;;
23117;SDS011;11728;50.624;6.014;2022-08-19T11:42:11;25.25;;;16.63;;
23117;SDS011;11728;50.624;6.014;2022-08-19T11:47:30;16.77;;;13.43;;
23117;SDS011;11728;50.624;6.014;2022-08-19T11:52:31;15.85;;;12.20;;
23117;SDS011;11728;50.624;6.014;2022-08-19T11:57:31;14.82;;;10.68;;
23117;SDS011;11728;50.624;6.014;2022-08-19T12:02:32;18.90;;;11.23;;
23117;SDS011;11728;50.624;6.014;2022-08-19T12:07:33;14.38;;;9.90;;
23117;SDS011;11728;50.624;6.014;2022-08-19T12:12:34;10.77;;;8.57;;
23117;SDS011;11728;50.624;6.014;2022-08-19T12:17:35;11.88;;;6.78;;
23117;SDS011;11728;50.624;6.014;2022-08-19T12:22:36;5.90;;;4.95;;
23117;SDS011;11728;50.624;6.014;2022-08-19T12:27:38;7.20;;;3.95;;
23117;SDS011;11728;50.624;6.014;2022-08-19T12:32:39;8.77;;;5.10;;
23117;SDS011;11728;50.624;6.014;2022-08-19T12:37:40;8.52;;;3.97;;
23117;SDS011;11728;50.624;6.014;2022-08-19T12:42:42;6.57;;;4.20;;
23117;SDS011;11728;50.624;6.014;2022-08-19T12:47:43;5.15;;;3.50;;
23117;SDS011;11728;50.624;6.014;2022-08-19T12:52:44;9.82;;;3.88;;
23117;SDS011;11728;50.624;6.014;2022-08-19T12:57:44;4.82;;;3.35;;
23117;SDS011;11728;50.624;6.014;2022-08-19T13:02:46;7.68;;;3.55;;
23117;SDS011;11728;50.624;6.014;2022-08-19T13:07:51;5.03;;;3.00;;
23117;SDS011;11728;50.624;6.014;2022-08-19T13:12:56;4.85;;;2.72;;
23117;SDS011;11728;50.624;6.014;2022-08-19T13:17:59;7.50;;;2.65;;
23117;SDS011;11728;50.624;6.014;2022-08-19T13:23:00;7.43;;;3.78;;
23117;SDS011;11728;50.624;6.014;2022-08-19T13:28:01;8.27;;;3.65;;
23117;SDS011;11728;50.624;6.014;2022-08-19T13:33:02;5.97;;;3.72;;
23117;SDS011;11728;50.624;6.014;2022-08-19T13:38:12;7.43;;;4.15;;
23117;SDS011;11728;50.624;6.014;2022-08-19T13:43:16;5.03;;;3.10;;
23117;SDS011;11728;50.624;6.014;2022-08-19T13:48:17;5.43;;;3.30;;
23117;SDS011;11728;50.624;6.014;2022-08-19T13:53:19;6.90;;;3.50;;
23117;SDS011;11728;50.624;6.014;2022-08-19T13:58:20;8.07;;;3.20;;
23117;SDS011;11728;50.624;6.014;2022-08-19T14:03:20;4.40;;;3.20;;
23117;SDS011;11728;50.624;6.014;2022-08-19T14:08:21;11.98;;;3.05;;
23117;SDS011;11728;50.624;6.014;2022-08-19T14:13:22;5.93;;;2.85;;
23117;SDS011;11728;50.624;6.014;2022-08-19T14:18:23;9.30;;;2.80;;
23117;SDS011;11728;50.624;6.014;2022-08-19T14:23:25;5.53;;;2.83;;
23117;SDS011;11728;50.624;6.014;2022-08-19T14:28:26;11.77;;;2.65;;
23117;SDS011;11728;50.624;6.014;2022-08-19T14:33:28;6.93;;;3.03;;
23117;SDS011;11728;50.624;6.014;2022-08-19T14:38:28;5.95;;;2.20;;
23117;SDS011;11728;50.624;6.014;2022-08-19T14:43:31;5.38;;;2.17;;
23117;SDS011;11728;50.624;6.014;2022-08-19T14:48:31;5.97;;;2.50;;
23117;SDS011;11728;50.624;6.014;2022-08-19T14:53:32;3.92;;;2.50;;
23117;SDS011;11728;50.624;6.014;2022-08-19T14:58:36;4.57;;;2.67;;
23117;SDS011;11728;50.624;6.014;2022-08-19T15:03:38;4.03;;;2.70;;
23117;SDS011;11728;50.624;6.014;2022-08-19T15:08:41;5.60;;;3.40;;
23117;SDS011;11728;50.624;6.014;2022-08-19T15:13:43;6.35;;;3.13;;
23117;SDS011;11728;50.624;6.014;2022-08-19T15:18:48;5.30;;;3.65;;
23117;SDS011;11728;50.624;6.014;2022-08-19T15:23:52;4.57;;;3.28;;
23117;SDS011;11728;50.624;6.014;2022-08-19T15:28:54;4.35;;;2.88;;
23117;SDS011;11728;50.624;6.014;2022-08-19T15:33:57;5.15;;;2.75;;
23117;SDS011;11728;50.624;6.014;2022-08-19T15:38:58;3.47;;;2.40;;
23117;SDS011;11728;50.624;6.014;2022-08-19T15:44:03;4.25;;;2.00;;
23117;SDS011;11728;50.624;6.014;2022-08-19T15:49:10;5.70;;;1.90;;
23117;SDS011;11728;50.624;6.014;2022-08-19T15:54:13;7.72;;;2.17;;
23117;SDS011;11728;50.624;6.014;2022-08-19T15:59:16;7.97;;;2.10;;
23117;SDS011;11728;50.624;6.014;2022-08-19T16:04:35;2.88;;;1.42;;
23117;SDS011;11728;50.624;6.014;2022-08-19T16:09:54;6.03;;;1.80;;
23117;SDS011;11728;50.624;6.014;2022-08-19T16:14:55;2.55;;;1.88;;
23117;SDS011;11728;50.624;6.014;2022-08-19T16:19:55;2.60;;;1.70;;
23117;SDS011;11728;50.624;6.014;2022-08-19T16:24:56;4.32;;;2.40;;
23117;SDS011;11728;50.624;6.014;2022-08-19T16:29:57;2.90;;;2.03;;
23117;SDS011;11728;50.624;6.014;2022-08-19T16:34:58;3.03;;;2.28;;
23117;SDS011;11728;50.624;6.014;2022-08-19T16:39:59;5.15;;;2.13;;
23117;SDS011;11728;50.624;6.014;2022-08-19T16:45:00;4.13;;;1.65;;
23117;SDS011;11728;50.624;6.014;2022-08-19T16:50:03;2.15;;;1.65;;
23117;SDS011;11728;50.624;6.014;2022-08-19T16:55:06;3.10;;;1.50;;
23117;SDS011;11728;50.624;6.014;2022-08-19T17:06:49;2.42;;;1.15;;
23117;SDS011;11728;50.624;6.014;2022-08-19T17:11:50;1.80;;;1.10;;
23117;SDS011;11728;50.624;6.014;2022-08-19T17:16:51;1.77;;;0.90;;
23117;SDS011;11728;50.624;6.014;2022-08-19T17:21:52;4.00;;;0.90;;
23117;SDS011;11728;50.624;6.014;2022-08-19T17:26:53;5.40;;;1.00;;
23117;SDS011;11728;50.624;6.014;2022-08-19T17:31:53;3.90;;;1.17;;
23117;SDS011;11728;50.624;6.014;2022-08-19T17:36:54;2.50;;;1.27;;
23117;SDS011;11728;50.624;6.014;2022-08-19T17:41:57;3.47;;;2.10;;
23117;SDS011;11728;50.624;6.014;2022-08-19T17:46:57;4.70;;;1.98;;
23117;SDS011;11728;50.624;6.014;2022-08-19T17:51:58;2.38;;;1.50;;
23117;SDS011;11728;50.624;6.014;2022-08-19T17:56:59;4.75;;;1.73;;
23117;SDS011;11728;50.624;6.014;2022-08-19T18:02:00;5.45;;;2.10;;
23117;SDS011;11728;50.624;6.014;2022-08-19T18:07:00;2.55;;;1.52;;
23117;SDS011;11728;50.624;6.014;2022-08-19T18:12:03;9.00;;;2.05;;
23117;SDS011;11728;50.624;6.014;2022-08-19T18:17:06;12.45;;;2.08;;
23117;SDS011;11728;50.624;6.014;2022-08-19T18:22:50;5.38;;;1.88;;
23117;SDS011;11728;50.624;6.014;2022-08-19T18:27:35;4.93;;;1.48;;
23117;SDS011;11728;50.624;6.014;2022-08-19T18:32:37;2.60;;;1.55;;
23117;SDS011;11728;50.624;6.014;2022-08-19T18:37:39;5.88;;;2.00;;
23117;SDS011;11728;50.624;6.014;2022-08-19T18:42:42;2.85;;;1.92;;
23117;SDS011;11728;50.624;6.014;2022-08-19T18:48:22;4.93;;;2.38;;
23117;SDS011;11728;50.624;6.014;2022-08-19T18:58:43;2.72;;;1.40;;
23117;SDS011;11728;50.624;6.014;2022-08-19T19:03:45;4.00;;;1.45;;
23117;SDS011;11728;50.624;6.014;2022-08-19T19:08:48;2.70;;;1.42;;
23117;SDS011;11728;50.624;6.014;2022-08-19T19:13:50;1.60;;;1.10;;
23117;SDS011;11728;50.624;6.014;2022-08-19T19:18:51;4.70;;;1.20;;
23117;SDS011;11728;50.624;6.014;2022-08-19T19:23:52;4.50;;;1.83;;
23117;SDS011;11728;50.624;6.014;2022-08-19T19:28:53;5.10;;;1.50;;
23117;SDS011;11728;50.624;6.014;2022-08-19T19:33:54;3.47;;;1.67;;
23117;SDS011;11728;50.624;6.014;2022-08-19T19:38:55;4.20;;;1.70;;
23117;SDS011;11728;50.624;6.014;2022-08-19T19:43:55;3.13;;;1.80;;
23117;SDS011;11728;50.624;6.014;2022-08-19T19:49:00;3.17;;;2.08;;
23117;SDS011;11728;50.624;6.014;2022-08-19T19:54:01;2.45;;;1.70;;
23117;SDS011;11728;50.624;6.014;2022-08-19T19:59:01;3.38;;;1.80;;
23117;SDS011;11728;50.624;6.014;2022-08-19T20:04:03;3.63;;;1.92;;
23117;SDS011;11728;50.624;6.014;2022-08-19T20:09:03;5.30;;;2.35;;
23117;SDS011;11728;50.624;6.014;2022-08-19T20:14:12;5.03;;;1.70;;
23117;SDS011;11728;50.624;6.014;2022-08-19T20:19:23;6.32;;;2.15;;
23117;SDS011;11728;50.624;6.014;2022-08-19T20:24:28;3.45;;;2.00;;
23117;SDS011;11728;50.624;6.014;2022-08-19T20:29:34;3.42;;;1.63;;
23117;SDS011;11728;50.624;6.014;2022-08-19T20:34:35;3.72;;;1.83;;
23117;SDS011;11728;50.624;6.014;2022-08-19T20:39:36;2.88;;;1.67;;
23117;SDS011;11728;50.624;6.014;2022-08-19T20:44:37;3.20;;;1.95;;
23117;SDS011;11728;50.624;6.014;2022-08-19T20:49:37;3.40;;;2.20;;
23117;SDS011;11728;50.624;6.014;2022-08-19T20:54:38;2.47;;;2.00;;
23117;SDS011;11728;50.624;6.014;2022-08-19T20:59:38;3.42;;;2.13;;
23117;SDS011;11728;50.624;6.014;2022-08-19T21:04:39;3.47;;;2.20;;
23117;SDS011;11728;50.624;6.014;2022-08-19T21:09:40;3.63;;;2.03;;
23117;SDS011;11728;50.624;6.014;2022-08-19T21:14:41;3.92;;;2.45;;
23117;SDS011;11728;50.624;6.014;2022-08-19T21:19:43;3.72;;;2.50;;
23117;SDS011;11728;50.624;6.014;2022-08-19T21:24:43;3.72;;;2.30;;
23117;SDS011;11728;50.624;6.014;2022-08-19T21:29:44;3.95;;;2.17;;
23117;SDS011;11728;50.624;6.014;2022-08-19T21:34:44;5.40;;;2.67;;
23117;SDS011;11728;50.624;6.014;2022-08-19T21:39:46;3.65;;;2.10;;
23117;SDS011;11728;50.624;6.014;2022-08-19T21:44:47;3.50;;;2.25;;
23117;SDS011;11728;50.624;6.014;2022-08-19T21:49:48;5.57;;;2.20;;
23117;SDS011;11728;50.624;6.014;2022-08-19T21:54:48;5.82;;;2.60;;
23117;SDS011;11728;50.624;6.014;2022-08-19T21:59:50;3.95;;;2.70;;
23117;SDS011;11728;50.624;6.014;2022-08-19T22:04:51;4.45;;;2.67;;
23117;SDS011;11728;50.624;6.014;2022-08-19T22:09:52;3.78;;;2.60;;
23117;SDS011;11728;50.624;6.014;2022-08-19T22:14:53;5.15;;;4.13;;
23117;SDS011;11728;50.624;6.014;2022-08-19T22:19:55;8.05;;;4.15;;
23117;SDS011;11728;50.624;6.014;2022-08-19T22:25:16;6.13;;;4.63;;
23117;SDS011;11728;50.624;6.014;2022-08-19T22:30:22;9.45;;;5.50;;
23117;SDS011;11728;50.624;6.014;2022-08-19T22:35:24;7.05;;;4.95;;
23117;SDS011;11728;50.624;6.014;2022-08-19T22:40:29;8.98;;;6.40;;
23117;SDS011;11728;50.624;6.014;2022-08-19T22:45:30;8.48;;;5.95;;
23117;SDS011;11728;50.624;6.014;2022-08-19T22:50:33;9.15;;;6.72;;
23117;SDS011;11728;50.624;6.014;2022-08-19T22:55:35;8.18;;;7.00;;
23117;SDS011;11728;50.624;6.014;2022-08-19T23:00:37;11.98;;;8.38;;
23117;SDS011;11728;50.624;6.014;2022-08-19T23:05:37;10.00;;;8.48;;
23117;SDS011;11728;50.624;6.014;2022-08-19T23:10:38;11.98;;;8.57;;
23117;SDS011;11728;50.624;6.014;2022-08-19T23:15:39;11.52;;;8.35;;
23117;SDS011;11728;50.624;6.014;2022-08-19T23:20:40;13.50;;;10.00;;
23117;SDS011;11728;50.624;6.014;2022-08-19T23:25:42;10.73;;;9.45;;
23117;SDS011;11728;50.624;6.014;2022-08-19T23:30:44;10.68;;;9.35;;
23117;SDS011;11728;50.624;6.014;2022-08-19T23:35:46;11.63;;;9.65;;
23117;SDS011;11728;50.624;6.014;2022-08-19T23:40:47;12.82;;;9.52;;
23117;SDS011;11728;50.624;6.014;2022-08-19T23:45:52;13.30;;;10.15;;
23117;SDS011;11728;50.624;6.014;2022-08-19T23:50:54;11.02;;;9.90;;
23117;SDS011;11728;50.624;6.014;2022-08-19T23:55:55;11.40;;;9.82;;
